sensor_id;sensor_type;location;lat;lon;timestamp;P1;durP1;ratioP1;P2;durP2;ratioP2
64903;SDS011;51401;48.882;12.598;2022-10-16T00:00:42;7.18;;;4.50;;
64903;SDS011;51401;48.882;12.598;2022-10-16T00:03:08;4.80;;;4.40;;
64903;SDS011;51401;48.882;12.598;2022-10-16T00:05:38;8.30;;;4.15;;
64903;SDS011;51401;48.882;12.598;2022-10-16T00:08:06;4.35;;;3.58;;
64903;SDS011;51401;48.882;12.598;2022-10-16T00:10:32;6.32;;;4.20;;
64903;SDS011;51401;48.882;12.598;2022-10-16T00:12:58;6.53;;;4.38;;
64903;SDS011;51401;48.882;12.598;2022-10-16T00:15:24;5.43;;;4.10;;
64903;SDS011;51401;48.882;12.598;2022-10-16T00:17:49;4.75;;;4.18;;
64903;SDS011;51401;48.882;12.598;2022-10-16T00:20:14;4.57;;;4.10;;
64903;SDS011;51401;48.882;12.598;2022-10-16T00:22:40;5.22;;;3.97;;
64903;SDS011;51401;48.882;12.598;2022-10-16T00:25:05;5.88;;;3.92;;
64903;SDS011;51401;48.882;12.598;2022-10-16T00:27:31;5.20;;;4.03;;
64903;SDS011;51401;48.882;12.598;2022-10-16T00:29:56;4.32;;;3.90;;
64903;SDS011;51401;48.882;12.598;2022-10-16T00:32:22;4.47;;;3.63;;
64903;SDS011;51401;48.882;12.598;2022-10-16T00:34:47;4.43;;;4.03;;
64903;SDS011;51401;48.882;12.598;2022-10-16T00:37:12;6.47;;;3.80;;
64903;SDS011;51401;48.882;12.598;2022-10-16T00:39:38;5.28;;;4.05;;
64903;SDS011;51401;48.882;12.598;2022-10-16T00:42:03;4.20;;;3.58;;
64903;SDS011;51401;48.882;12.598;2022-10-16T00:44:47;4.85;;;3.60;;
64903;SDS011;51401;48.882;12.598;2022-10-16T00:47:25;3.97;;;3.60;;
64903;SDS011;51401;48.882;12.598;2022-10-16T00:49:53;4.10;;;3.70;;
64903;SDS011;51401;48.882;12.598;2022-10-16T00:52:23;5.03;;;4.03;;
64903;SDS011;51401;48.882;12.598;2022-10-16T00:54:49;4.38;;;3.83;;
64903;SDS011;51401;48.882;12.598;2022-10-16T00:57:15;5.13;;;4.10;;
64903;SDS011;51401;48.882;12.598;2022-10-16T00:59:41;4.40;;;3.85;;
64903;SDS011;51401;48.882;12.598;2022-10-16T01:02:08;6.05;;;5.13;;
64903;SDS011;51401;48.882;12.598;2022-10-16T01:04:37;7.28;;;4.70;;
64903;SDS011;51401;48.882;12.598;2022-10-16T01:10:24;5.70;;;4.47;;
64903;SDS011;51401;48.882;12.598;2022-10-16T01:13:19;5.18;;;4.15;;
64903;SDS011;51401;48.882;12.598;2022-10-16T01:15:54;4.88;;;4.43;;
64903;SDS011;51401;48.882;12.598;2022-10-16T01:18:44;5.60;;;4.45;;
64903;SDS011;51401;48.882;12.598;2022-10-16T01:21:22;10.07;;;4.40;;
64903;SDS011;51401;48.882;12.598;2022-10-16T01:29:24;4.30;;;3.90;;
64903;SDS011;51401;48.882;12.598;2022-10-16T01:31:55;5.75;;;4.47;;
64903;SDS011;51401;48.882;12.598;2022-10-16T01:34:46;4.45;;;4.03;;
64903;SDS011;51401;48.882;12.598;2022-10-16T01:37:16;4.30;;;3.90;;
64903;SDS011;51401;48.882;12.598;2022-10-16T01:39:48;6.70;;;4.38;;
64903;SDS011;51401;48.882;12.598;2022-10-16T01:42:21;5.30;;;4.18;;
64903;SDS011;51401;48.882;12.598;2022-10-16T01:44:48;4.72;;;4.05;;
64903;SDS011;51401;48.882;12.598;2022-10-16T01:47:16;5.30;;;3.97;;
64903;SDS011;51401;48.882;12.598;2022-10-16T01:49:44;5.57;;;4.20;;
64903;SDS011;51401;48.882;12.598;2022-10-16T01:52:12;4.50;;;4.07;;
64903;SDS011;51401;48.882;12.598;2022-10-16T01:54:42;5.20;;;4.60;;
64903;SDS011;51401;48.882;12.598;2022-10-16T01:57:10;6.60;;;4.35;;
64903;SDS011;51401;48.882;12.598;2022-10-16T01:59:39;5.22;;;4.30;;
64903;SDS011;51401;48.882;12.598;2022-10-16T02:02:09;6.75;;;4.47;;
64903;SDS011;51401;48.882;12.598;2022-10-16T02:04:38;4.75;;;4.20;;
64903;SDS011;51401;48.882;12.598;2022-10-16T02:07:07;4.65;;;4.22;;
64903;SDS011;51401;48.882;12.598;2022-10-16T02:09:33;5.07;;;4.55;;
64903;SDS011;51401;48.882;12.598;2022-10-16T02:11:59;6.20;;;4.78;;
64903;SDS011;51401;48.882;12.598;2022-10-16T02:14:31;5.75;;;5.03;;
64903;SDS011;51401;48.882;12.598;2022-10-16T02:16:57;5.43;;;4.93;;
64903;SDS011;51401;48.882;12.598;2022-10-16T02:19:23;5.07;;;4.55;;
64903;SDS011;51401;48.882;12.598;2022-10-16T02:21:53;5.82;;;4.65;;
64903;SDS011;51401;48.882;12.598;2022-10-16T02:27:12;6.07;;;4.60;;
64903;SDS011;51401;48.882;12.598;2022-10-16T02:29:46;6.90;;;4.70;;
64903;SDS011;51401;48.882;12.598;2022-10-16T02:32:19;5.13;;;4.60;;
64903;SDS011;51401;48.882;12.598;2022-10-16T02:34:48;4.43;;;3.97;;
64903;SDS011;51401;48.882;12.598;2022-10-16T02:37:14;4.60;;;4.10;;
64903;SDS011;51401;48.882;12.598;2022-10-16T02:39:42;4.70;;;4.10;;
64903;SDS011;51401;48.882;12.598;2022-10-16T02:42:11;4.88;;;4.10;;
64903;SDS011;51401;48.882;12.598;2022-10-16T02:44:38;5.32;;;4.13;;
64903;SDS011;51401;48.882;12.598;2022-10-16T02:47:03;6.75;;;4.13;;
64903;SDS011;51401;48.882;12.598;2022-10-16T02:49:28;4.43;;;3.83;;
64903;SDS011;51401;48.882;12.598;2022-10-16T02:51:54;5.27;;;4.27;;
64903;SDS011;51401;48.882;12.598;2022-10-16T02:54:19;5.40;;;4.55;;
64903;SDS011;51401;48.882;12.598;2022-10-16T02:56:45;4.75;;;4.30;;
64903;SDS011;51401;48.882;12.598;2022-10-16T02:59:10;5.90;;;4.97;;
64903;SDS011;51401;48.882;12.598;2022-10-16T03:01:35;5.03;;;4.40;;
64903;SDS011;51401;48.882;12.598;2022-10-16T03:04:01;4.35;;;3.88;;
64903;SDS011;51401;48.882;12.598;2022-10-16T03:06:26;5.13;;;4.13;;
64903;SDS011;51401;48.882;12.598;2022-10-16T03:08:51;5.97;;;4.40;;
64903;SDS011;51401;48.882;12.598;2022-10-16T03:11:17;6.15;;;4.40;;
64903;SDS011;51401;48.882;12.598;2022-10-16T03:13:42;5.13;;;4.13;;
64903;SDS011;51401;48.882;12.598;2022-10-16T03:16:07;5.40;;;4.40;;
64903;SDS011;51401;48.882;12.598;2022-10-16T03:18:33;4.78;;;4.28;;
64903;SDS011;51401;48.882;12.598;2022-10-16T03:20:58;4.60;;;4.07;;
64903;SDS011;51401;48.882;12.598;2022-10-16T03:23:23;6.35;;;4.53;;
64903;SDS011;51401;48.882;12.598;2022-10-16T03:25:48;4.88;;;4.38;;
64903;SDS011;51401;48.882;12.598;2022-10-16T03:28:14;5.50;;;4.68;;
64903;SDS011;51401;48.882;12.598;2022-10-16T03:30:39;6.68;;;4.55;;
64903;SDS011;51401;48.882;12.598;2022-10-16T03:33:05;5.63;;;4.72;;
64903;SDS011;51401;48.882;12.598;2022-10-16T03:35:30;6.05;;;4.45;;
64903;SDS011;51401;48.882;12.598;2022-10-16T03:37:56;5.82;;;4.65;;
64903;SDS011;51401;48.882;12.598;2022-10-16T03:40:22;5.95;;;5.07;;
64903;SDS011;51401;48.882;12.598;2022-10-16T03:42:47;5.50;;;4.70;;
64903;SDS011;51401;48.882;12.598;2022-10-16T03:45:12;5.15;;;4.65;;
64903;SDS011;51401;48.882;12.598;2022-10-16T03:47:38;5.80;;;4.93;;
64903;SDS011;51401;48.882;12.598;2022-10-16T03:50:03;9.93;;;4.82;;
64903;SDS011;51401;48.882;12.598;2022-10-16T03:52:29;5.55;;;4.80;;
64903;SDS011;51401;48.882;12.598;2022-10-16T03:54:55;5.38;;;4.80;;
64903;SDS011;51401;48.882;12.598;2022-10-16T03:57:20;7.95;;;4.75;;
64903;SDS011;51401;48.882;12.598;2022-10-16T03:59:46;5.35;;;4.85;;
64903;SDS011;51401;48.882;12.598;2022-10-16T04:02:11;6.90;;;4.78;;
64903;SDS011;51401;48.882;12.598;2022-10-16T04:04:37;6.70;;;4.85;;
64903;SDS011;51401;48.882;12.598;2022-10-16T04:07:02;7.22;;;5.03;;
64903;SDS011;51401;48.882;12.598;2022-10-16T04:09:28;7.13;;;5.40;;
64903;SDS011;51401;48.882;12.598;2022-10-16T04:11:53;6.17;;;4.97;;
64903;SDS011;51401;48.882;12.598;2022-10-16T04:14:18;5.35;;;4.72;;
64903;SDS011;51401;48.882;12.598;2022-10-16T04:16:43;9.77;;;6.35;;
64903;SDS011;51401;48.882;12.598;2022-10-16T04:19:09;7.13;;;5.38;;
64903;SDS011;51401;48.882;12.598;2022-10-16T04:21:35;7.55;;;5.50;;
64903;SDS011;51401;48.882;12.598;2022-10-16T04:24:00;7.32;;;5.15;;
64903;SDS011;51401;48.882;12.598;2022-10-16T04:26:26;6.45;;;4.72;;
64903;SDS011;51401;48.882;12.598;2022-10-16T04:28:51;5.68;;;4.90;;
64903;SDS011;51401;48.882;12.598;2022-10-16T04:31:16;8.77;;;5.85;;
64903;SDS011;51401;48.882;12.598;2022-10-16T04:33:42;5.38;;;4.60;;
64903;SDS011;51401;48.882;12.598;2022-10-16T04:36:08;5.95;;;4.85;;
64903;SDS011;51401;48.882;12.598;2022-10-16T04:38:33;5.38;;;4.57;;
64903;SDS011;51401;48.882;12.598;2022-10-16T04:40:58;5.93;;;4.80;;
64903;SDS011;51401;48.882;12.598;2022-10-16T04:43:24;5.55;;;4.90;;
64903;SDS011;51401;48.882;12.598;2022-10-16T04:45:50;5.82;;;4.90;;
64903;SDS011;51401;48.882;12.598;2022-10-16T04:48:16;5.95;;;4.90;;
64903;SDS011;51401;48.882;12.598;2022-10-16T04:50:42;5.60;;;4.82;;
64903;SDS011;51401;48.882;12.598;2022-10-16T04:53:08;7.70;;;4.68;;
64903;SDS011;51401;48.882;12.598;2022-10-16T04:55:33;6.93;;;5.20;;
64903;SDS011;51401;48.882;12.598;2022-10-16T04:57:59;6.00;;;5.20;;
64903;SDS011;51401;48.882;12.598;2022-10-16T05:00:24;6.75;;;5.35;;
64903;SDS011;51401;48.882;12.598;2022-10-16T05:02:49;7.03;;;5.32;;
64903;SDS011;51401;48.882;12.598;2022-10-16T05:05:16;6.03;;;5.20;;
64903;SDS011;51401;48.882;12.598;2022-10-16T05:07:43;5.97;;;5.32;;
64903;SDS011;51401;48.882;12.598;2022-10-16T05:10:09;5.88;;;4.65;;
64903;SDS011;51401;48.882;12.598;2022-10-16T05:12:34;6.45;;;4.85;;
64903;SDS011;51401;48.882;12.598;2022-10-16T05:14:59;7.88;;;5.43;;
64903;SDS011;51401;48.882;12.598;2022-10-16T05:17:25;6.93;;;5.43;;
64903;SDS011;51401;48.882;12.598;2022-10-16T05:19:51;5.97;;;5.38;;
64903;SDS011;51401;48.882;12.598;2022-10-16T05:22:16;6.63;;;5.07;;
64903;SDS011;51401;48.882;12.598;2022-10-16T05:24:41;6.13;;;5.30;;
64903;SDS011;51401;48.882;12.598;2022-10-16T05:27:07;5.88;;;4.80;;
64903;SDS011;51401;48.882;12.598;2022-10-16T05:29:32;7.38;;;6.03;;
64903;SDS011;51401;48.882;12.598;2022-10-16T05:31:57;7.47;;;5.18;;
64903;SDS011;51401;48.882;12.598;2022-10-16T05:34:23;7.00;;;5.03;;
64903;SDS011;51401;48.882;12.598;2022-10-16T05:36:48;5.35;;;4.82;;
64903;SDS011;51401;48.882;12.598;2022-10-16T05:39:14;6.93;;;4.50;;
64903;SDS011;51401;48.882;12.598;2022-10-16T05:41:40;6.38;;;5.25;;
64903;SDS011;51401;48.882;12.598;2022-10-16T05:44:06;8.68;;;5.68;;
64903;SDS011;51401;48.882;12.598;2022-10-16T05:46:31;5.97;;;4.80;;
64903;SDS011;51401;48.882;12.598;2022-10-16T05:48:57;7.35;;;5.38;;
64903;SDS011;51401;48.882;12.598;2022-10-16T05:51:23;6.15;;;5.38;;
64903;SDS011;51401;48.882;12.598;2022-10-16T05:53:48;7.82;;;4.97;;
64903;SDS011;51401;48.882;12.598;2022-10-16T05:56:13;5.35;;;4.32;;
64903;SDS011;51401;48.882;12.598;2022-10-16T05:58:39;5.40;;;4.90;;
64903;SDS011;51401;48.882;12.598;2022-10-16T06:01:12;6.60;;;4.55;;
64903;SDS011;51401;48.882;12.598;2022-10-16T06:03:40;5.72;;;5.18;;
64903;SDS011;51401;48.882;12.598;2022-10-16T06:06:13;6.53;;;4.78;;
64903;SDS011;51401;48.882;12.598;2022-10-16T06:08:40;8.85;;;5.10;;
64903;SDS011;51401;48.882;12.598;2022-10-16T06:11:07;7.65;;;4.85;;
64903;SDS011;51401;48.882;12.598;2022-10-16T06:13:35;5.72;;;4.22;;
64903;SDS011;51401;48.882;12.598;2022-10-16T06:16:01;6.75;;;5.20;;
64903;SDS011;51401;48.882;12.598;2022-10-16T06:18:27;5.53;;;4.93;;
64903;SDS011;51401;48.882;12.598;2022-10-16T06:20:53;6.45;;;4.72;;
64903;SDS011;51401;48.882;12.598;2022-10-16T06:23:19;5.70;;;4.32;;
64903;SDS011;51401;48.882;12.598;2022-10-16T06:25:44;5.63;;;4.15;;
64903;SDS011;51401;48.882;12.598;2022-10-16T06:28:10;5.05;;;4.53;;
64903;SDS011;51401;48.882;12.598;2022-10-16T06:30:35;4.90;;;3.72;;
64903;SDS011;51401;48.882;12.598;2022-10-16T06:33:00;4.88;;;3.72;;
64903;SDS011;51401;48.882;12.598;2022-10-16T06:35:26;6.05;;;4.30;;
64903;SDS011;51401;48.882;12.598;2022-10-16T06:37:52;4.30;;;3.72;;
64903;SDS011;51401;48.882;12.598;2022-10-16T06:40:18;5.03;;;4.50;;
64903;SDS011;51401;48.882;12.598;2022-10-16T06:42:43;4.65;;;3.65;;
64903;SDS011;51401;48.882;12.598;2022-10-16T06:45:08;5.13;;;4.28;;
64903;SDS011;51401;48.882;12.598;2022-10-16T06:47:34;4.57;;;3.97;;
64903;SDS011;51401;48.882;12.598;2022-10-16T06:49:59;5.53;;;4.18;;
64903;SDS011;51401;48.882;12.598;2022-10-16T06:52:27;4.80;;;3.83;;
64903;SDS011;51401;48.882;12.598;2022-10-16T06:54:53;5.05;;;4.13;;
64903;SDS011;51401;48.882;12.598;2022-10-16T06:57:18;5.30;;;3.87;;
64903;SDS011;51401;48.882;12.598;2022-10-16T06:59:43;4.57;;;3.65;;
64903;SDS011;51401;48.882;12.598;2022-10-16T07:02:09;4.68;;;4.07;;
64903;SDS011;51401;48.882;12.598;2022-10-16T07:04:35;5.57;;;4.78;;
64903;SDS011;51401;48.882;12.598;2022-10-16T07:07:01;6.80;;;4.90;;
64903;SDS011;51401;48.882;12.598;2022-10-16T07:09:26;5.35;;;4.47;;
64903;SDS011;51401;48.882;12.598;2022-10-16T07:11:51;5.57;;;4.30;;
64903;SDS011;51401;48.882;12.598;2022-10-16T07:14:17;6.53;;;5.53;;
64903;SDS011;51401;48.882;12.598;2022-10-16T07:16:45;5.78;;;5.18;;
64903;SDS011;51401;48.882;12.598;2022-10-16T07:19:10;6.32;;;4.30;;
64903;SDS011;51401;48.882;12.598;2022-10-16T07:21:38;4.55;;;4.15;;
64903;SDS011;51401;48.882;12.598;2022-10-16T07:24:04;5.40;;;4.75;;
64903;SDS011;51401;48.882;12.598;2022-10-16T07:26:32;5.25;;;4.15;;
64903;SDS011;51401;48.882;12.598;2022-10-16T07:28:59;4.13;;;3.40;;
64903;SDS011;51401;48.882;12.598;2022-10-16T07:31:25;3.95;;;3.45;;
64903;SDS011;51401;48.882;12.598;2022-10-16T07:33:51;5.55;;;3.30;;
64903;SDS011;51401;48.882;12.598;2022-10-16T07:36:18;4.13;;;3.38;;
64903;SDS011;51401;48.882;12.598;2022-10-16T07:38:44;5.07;;;3.80;;
64903;SDS011;51401;48.882;12.598;2022-10-16T07:41:11;4.65;;;3.72;;
64903;SDS011;51401;48.882;12.598;2022-10-16T07:43:38;8.80;;;5.28;;
64903;SDS011;51401;48.882;12.598;2022-10-16T07:46:03;4.75;;;3.40;;
64903;SDS011;51401;48.882;12.598;2022-10-16T07:48:30;4.20;;;3.17;;
64903;SDS011;51401;48.882;12.598;2022-10-16T07:51:00;3.40;;;3.10;;
64903;SDS011;51401;48.882;12.598;2022-10-16T07:53:27;3.92;;;3.53;;
64903;SDS011;51401;48.882;12.598;2022-10-16T07:55:59;4.65;;;3.63;;
64903;SDS011;51401;48.882;12.598;2022-10-16T07:58:29;4.10;;;3.20;;
64903;SDS011;51401;48.882;12.598;2022-10-16T08:00:55;5.25;;;3.17;;
64903;SDS011;51401;48.882;12.598;2022-10-16T08:03:21;5.18;;;3.30;;
64903;SDS011;51401;48.882;12.598;2022-10-16T08:05:46;5.78;;;3.63;;
64903;SDS011;51401;48.882;12.598;2022-10-16T08:08:13;5.15;;;3.53;;
64903;SDS011;51401;48.882;12.598;2022-10-16T08:10:39;4.47;;;3.47;;
64903;SDS011;51401;48.882;12.598;2022-10-16T08:13:05;4.95;;;4.20;;
64903;SDS011;51401;48.882;12.598;2022-10-16T08:15:30;4.50;;;3.10;;
64903;SDS011;51401;48.882;12.598;2022-10-16T08:18:00;4.78;;;3.50;;
64903;SDS011;51401;48.882;12.598;2022-10-16T08:20:27;5.57;;;3.38;;
64903;SDS011;51401;48.882;12.598;2022-10-16T08:22:53;3.42;;;2.72;;
64903;SDS011;51401;48.882;12.598;2022-10-16T08:25:20;4.25;;;3.30;;
64903;SDS011;51401;48.882;12.598;2022-10-16T08:27:48;4.53;;;2.88;;
64903;SDS011;51401;48.882;12.598;2022-10-16T08:30:15;7.43;;;5.03;;
64903;SDS011;51401;48.882;12.598;2022-10-16T08:32:40;3.05;;;2.60;;
64903;SDS011;51401;48.882;12.598;2022-10-16T08:35:09;4.38;;;3.20;;
64903;SDS011;51401;48.882;12.598;2022-10-16T08:37:35;4.07;;;2.90;;
64903;SDS011;51401;48.882;12.598;2022-10-16T08:40:02;2.63;;;2.35;;
64903;SDS011;51401;48.882;12.598;2022-10-16T08:42:38;3.20;;;2.72;;
64903;SDS011;51401;48.882;12.598;2022-10-16T08:45:19;2.88;;;2.38;;
64903;SDS011;51401;48.882;12.598;2022-10-16T08:47:48;4.05;;;2.80;;
64903;SDS011;51401;48.882;12.598;2022-10-16T08:50:29;3.53;;;2.83;;
64903;SDS011;51401;48.882;12.598;2022-10-16T08:52:56;2.67;;;2.40;;
64903;SDS011;51401;48.882;12.598;2022-10-16T08:58:13;3.05;;;2.35;;
64903;SDS011;51401;48.882;12.598;2022-10-16T09:00:41;2.92;;;2.63;;
64903;SDS011;51401;48.882;12.598;2022-10-16T09:03:14;3.80;;;3.00;;
64903;SDS011;51401;48.882;12.598;2022-10-16T09:08:44;3.22;;;2.60;;
64903;SDS011;51401;48.882;12.598;2022-10-16T09:11:43;3.10;;;2.30;;
64903;SDS011;51401;48.882;12.598;2022-10-16T09:22:47;4.32;;;3.08;;
64903;SDS011;51401;48.882;12.598;2022-10-16T09:25:16;4.00;;;3.05;;
64903;SDS011;51401;48.882;12.598;2022-10-16T09:27:45;4.07;;;3.00;;
64903;SDS011;51401;48.882;12.598;2022-10-16T09:30:14;3.00;;;2.70;;
64903;SDS011;51401;48.882;12.598;2022-10-16T09:32:44;3.05;;;2.72;;
64903;SDS011;51401;48.882;12.598;2022-10-16T09:35:14;3.20;;;2.90;;
64903;SDS011;51401;48.882;12.598;2022-10-16T09:37:43;3.30;;;2.90;;
64903;SDS011;51401;48.882;12.598;2022-10-16T09:40:12;3.95;;;2.88;;
64903;SDS011;51401;48.882;12.598;2022-10-16T09:42:48;3.40;;;2.65;;
64903;SDS011;51401;48.882;12.598;2022-10-16T09:45:21;3.00;;;2.30;;
64903;SDS011;51401;48.882;12.598;2022-10-16T09:47:47;4.03;;;2.83;;
64903;SDS011;51401;48.882;12.598;2022-10-16T09:50:23;3.40;;;2.33;;
64903;SDS011;51401;48.882;12.598;2022-10-16T09:53:02;2.63;;;2.42;;
64903;SDS011;51401;48.882;12.598;2022-10-16T09:55:31;3.08;;;2.20;;
64903;SDS011;51401;48.882;12.598;2022-10-16T09:57:56;2.78;;;2.10;;
64903;SDS011;51401;48.882;12.598;2022-10-16T10:00:22;2.97;;;2.53;;
64903;SDS011;51401;48.882;12.598;2022-10-16T10:02:49;3.03;;;2.40;;
64903;SDS011;51401;48.882;12.598;2022-10-16T10:05:18;3.45;;;2.25;;
64903;SDS011;51401;48.882;12.598;2022-10-16T10:07:52;3.92;;;2.30;;
64903;SDS011;51401;48.882;12.598;2022-10-16T10:10:20;2.60;;;2.38;;
64903;SDS011;51401;48.882;12.598;2022-10-16T10:12:56;2.63;;;2.42;;
64903;SDS011;51401;48.882;12.598;2022-10-16T10:15:23;3.15;;;2.70;;
64903;SDS011;51401;48.882;12.598;2022-10-16T10:20:31;4.82;;;2.83;;
64903;SDS011;51401;48.882;12.598;2022-10-16T10:22:59;2.72;;;2.38;;
64903;SDS011;51401;48.882;12.598;2022-10-16T10:30:34;3.10;;;2.80;;
64903;SDS011;51401;48.882;12.598;2022-10-16T10:33:20;3.17;;;2.40;;
64903;SDS011;51401;48.882;12.598;2022-10-16T10:41:27;2.60;;;2.38;;
64903;SDS011;51401;48.882;12.598;2022-10-16T11:05:56;3.47;;;2.22;;
64903;SDS011;51401;48.882;12.598;2022-10-16T11:08:27;3.33;;;2.03;;
64903;SDS011;51401;48.882;12.598;2022-10-16T11:10:58;2.40;;;1.80;;
64903;SDS011;51401;48.882;12.598;2022-10-16T11:16:13;2.40;;;2.10;;
64903;SDS011;51401;48.882;12.598;2022-10-16T11:18:48;2.45;;;1.95;;
64903;SDS011;51401;48.882;12.598;2022-10-16T11:21:18;3.33;;;2.10;;
64903;SDS011;51401;48.882;12.598;2022-10-16T11:26:25;2.40;;;1.85;;
64903;SDS011;51401;48.882;12.598;2022-10-16T11:28:54;2.30;;;2.10;;
64903;SDS011;51401;48.882;12.598;2022-10-16T11:31:37;3.30;;;2.10;;
64903;SDS011;51401;48.882;12.598;2022-10-16T11:34:09;3.28;;;2.20;;
64903;SDS011;51401;48.882;12.598;2022-10-16T11:39:19;2.45;;;2.25;;
64903;SDS011;51401;48.882;12.598;2022-10-16T11:44:57;2.88;;;2.20;;
64903;SDS011;51401;48.882;12.598;2022-10-16T11:50:03;4.40;;;2.22;;
64903;SDS011;51401;48.882;12.598;2022-10-16T11:53:04;3.05;;;2.35;;
64903;SDS011;51401;48.882;12.598;2022-10-16T11:55:36;2.58;;;2.30;;
64903;SDS011;51401;48.882;12.598;2022-10-16T11:58:05;3.97;;;2.35;;
64903;SDS011;51401;48.882;12.598;2022-10-16T12:00:43;3.17;;;2.80;;
64903;SDS011;51401;48.882;12.598;2022-10-16T12:08:27;3.13;;;2.70;;
64903;SDS011;51401;48.882;12.598;2022-10-16T12:10:53;3.17;;;2.60;;
64903;SDS011;51401;48.882;12.598;2022-10-16T12:13:32;3.03;;;2.72;;
64903;SDS011;51401;48.882;12.598;2022-10-16T12:18:37;4.50;;;2.78;;
64903;SDS011;51401;48.882;12.598;2022-10-16T12:21:03;3.30;;;2.42;;
64903;SDS011;51401;48.882;12.598;2022-10-16T12:23:31;4.40;;;3.08;;
64903;SDS011;51401;48.882;12.598;2022-10-16T12:26:26;2.95;;;2.65;;
64903;SDS011;51401;48.882;12.598;2022-10-16T12:28:54;3.83;;;2.90;;
64903;SDS011;51401;48.882;12.598;2022-10-16T12:31:20;3.70;;;3.15;;
64903;SDS011;51401;48.882;12.598;2022-10-16T12:33:59;3.40;;;2.95;;
64903;SDS011;51401;48.882;12.598;2022-10-16T12:36:34;4.20;;;3.08;;
64903;SDS011;51401;48.882;12.598;2022-10-16T12:39:00;4.57;;;3.40;;
64903;SDS011;51401;48.882;12.598;2022-10-16T12:41:33;3.88;;;3.08;;
64903;SDS011;51401;48.882;12.598;2022-10-16T12:44:01;3.53;;;3.22;;
64903;SDS011;51401;48.882;12.598;2022-10-16T12:51:38;3.03;;;2.75;;
64903;SDS011;51401;48.882;12.598;2022-10-16T12:54:18;6.55;;;3.35;;
64903;SDS011;51401;48.882;12.598;2022-10-16T12:57:08;3.90;;;3.17;;
64903;SDS011;51401;48.882;12.598;2022-10-16T12:59:46;3.90;;;3.30;;
64903;SDS011;51401;48.882;12.598;2022-10-16T13:10:46;4.60;;;3.50;;
64903;SDS011;51401;48.882;12.598;2022-10-16T13:16:29;3.90;;;3.00;;
64903;SDS011;51401;48.882;12.598;2022-10-16T13:19:24;4.22;;;2.95;;
64903;SDS011;51401;48.882;12.598;2022-10-16T13:27:56;3.92;;;2.90;;
64903;SDS011;51401;48.882;12.598;2022-10-16T13:30:25;3.50;;;3.20;;
64903;SDS011;51401;48.882;12.598;2022-10-16T13:32:58;4.57;;;3.20;;
64903;SDS011;51401;48.882;12.598;2022-10-16T13:35:27;4.45;;;3.58;;
64903;SDS011;51401;48.882;12.598;2022-10-16T13:40:50;4.25;;;3.50;;
64903;SDS011;51401;48.882;12.598;2022-10-16T13:43:18;5.93;;;3.60;;
64903;SDS011;51401;48.882;12.598;2022-10-16T13:45:58;3.53;;;3.22;;
64903;SDS011;51401;48.882;12.598;2022-10-16T13:48:26;4.82;;;3.65;;
64903;SDS011;51401;48.882;12.598;2022-10-16T13:51:25;4.10;;;3.13;;
64903;SDS011;51401;48.882;12.598;2022-10-16T13:53:44;6.03;;;3.78;;
64903;SDS011;51401;48.882;12.598;2022-10-16T13:56:14;4.75;;;3.83;;
64903;SDS011;51401;48.882;12.598;2022-10-16T13:58:41;4.43;;;3.30;;
64903;SDS011;51401;48.882;12.598;2022-10-16T14:01:26;6.28;;;3.80;;
64903;SDS011;51401;48.882;12.598;2022-10-16T14:03:59;4.45;;;3.22;;
64903;SDS011;51401;48.882;12.598;2022-10-16T14:06:27;5.65;;;3.70;;
64903;SDS011;51401;48.882;12.598;2022-10-16T14:08:55;6.50;;;3.70;;
64903;SDS011;51401;48.882;12.598;2022-10-16T14:11:52;5.03;;;3.42;;
64903;SDS011;51401;48.882;12.598;2022-10-16T14:14:20;4.93;;;3.20;;
64903;SDS011;51401;48.882;12.598;2022-10-16T14:16:47;4.53;;;3.38;;
64903;SDS011;51401;48.882;12.598;2022-10-16T14:19:15;4.80;;;3.20;;
64903;SDS011;51401;48.882;12.598;2022-10-16T14:21:43;4.25;;;3.45;;
64903;SDS011;51401;48.882;12.598;2022-10-16T14:24:12;4.05;;;3.28;;
64903;SDS011;51401;48.882;12.598;2022-10-16T14:26:42;4.32;;;3.38;;
64903;SDS011;51401;48.882;12.598;2022-10-16T14:29:12;4.18;;;3.47;;
64903;SDS011;51401;48.882;12.598;2022-10-16T14:31:40;5.00;;;3.13;;
64903;SDS011;51401;48.882;12.598;2022-10-16T14:34:22;5.68;;;3.42;;
64903;SDS011;51401;48.882;12.598;2022-10-16T14:39:50;4.80;;;3.13;;
64903;SDS011;51401;48.882;12.598;2022-10-16T14:42:16;4.85;;;3.25;;
64903;SDS011;51401;48.882;12.598;2022-10-16T14:44:44;4.22;;;3.20;;
64903;SDS011;51401;48.882;12.598;2022-10-16T14:47:15;4.97;;;3.20;;
64903;SDS011;51401;48.882;12.598;2022-10-16T14:49:47;4.80;;;3.50;;
64903;SDS011;51401;48.882;12.598;2022-10-16T14:52:13;7.13;;;3.67;;
64903;SDS011;51401;48.882;12.598;2022-10-16T14:54:39;4.68;;;3.35;;
64903;SDS011;51401;48.882;12.598;2022-10-16T14:57:05;4.45;;;3.28;;
64903;SDS011;51401;48.882;12.598;2022-10-16T14:59:39;5.20;;;2.97;;
64903;SDS011;51401;48.882;12.598;2022-10-16T15:02:15;4.35;;;3.45;;
64903;SDS011;51401;48.882;12.598;2022-10-16T15:04:42;3.70;;;3.00;;
64903;SDS011;51401;48.882;12.598;2022-10-16T15:07:07;4.32;;;3.33;;
64903;SDS011;51401;48.882;12.598;2022-10-16T15:09:33;4.30;;;3.22;;
64903;SDS011;51401;48.882;12.598;2022-10-16T15:11:58;4.72;;;3.10;;
64903;SDS011;51401;48.882;12.598;2022-10-16T15:14:24;4.35;;;3.13;;
64903;SDS011;51401;48.882;12.598;2022-10-16T15:16:49;4.53;;;3.20;;
64903;SDS011;51401;48.882;12.598;2022-10-16T15:19:14;5.17;;;3.10;;
64903;SDS011;51401;48.882;12.598;2022-10-16T15:21:40;7.85;;;3.00;;
64903;SDS011;51401;48.882;12.598;2022-10-16T15:24:09;5.38;;;3.30;;
64903;SDS011;51401;48.882;12.598;2022-10-16T15:26:37;5.85;;;3.75;;
64903;SDS011;51401;48.882;12.598;2022-10-16T15:29:02;6.00;;;3.40;;
64903;SDS011;51401;48.882;12.598;2022-10-16T15:31:27;5.80;;;3.35;;
64903;SDS011;51401;48.882;12.598;2022-10-16T15:33:53;5.05;;;3.55;;
64903;SDS011;51401;48.882;12.598;2022-10-16T15:36:27;5.72;;;3.58;;
64903;SDS011;51401;48.882;12.598;2022-10-16T15:38:53;6.93;;;3.70;;
64903;SDS011;51401;48.882;12.598;2022-10-16T15:41:19;5.60;;;4.45;;
64903;SDS011;51401;48.882;12.598;2022-10-16T15:43:45;8.63;;;3.95;;
64903;SDS011;51401;48.882;12.598;2022-10-16T15:46:13;4.80;;;3.80;;
64903;SDS011;51401;48.882;12.598;2022-10-16T15:48:39;6.05;;;3.50;;
64903;SDS011;51401;48.882;12.598;2022-10-16T15:51:05;6.10;;;3.58;;
64903;SDS011;51401;48.882;12.598;2022-10-16T15:53:32;5.53;;;3.55;;
64903;SDS011;51401;48.882;12.598;2022-10-16T15:56:01;4.25;;;3.10;;
64903;SDS011;51401;48.882;12.598;2022-10-16T15:58:29;5.05;;;3.63;;
64903;SDS011;51401;48.882;12.598;2022-10-16T16:00:58;4.78;;;3.50;;
64903;SDS011;51401;48.882;12.598;2022-10-16T16:03:26;4.97;;;3.33;;
64903;SDS011;51401;48.882;12.598;2022-10-16T16:05:52;4.65;;;3.50;;
64903;SDS011;51401;48.882;12.598;2022-10-16T16:08:17;6.00;;;3.78;;
64903;SDS011;51401;48.882;12.598;2022-10-16T16:10:43;6.25;;;4.13;;
64903;SDS011;51401;48.882;12.598;2022-10-16T16:13:08;8.63;;;5.63;;
64903;SDS011;51401;48.882;12.598;2022-10-16T16:15:34;5.18;;;3.50;;
64903;SDS011;51401;48.882;12.598;2022-10-16T16:17:59;6.15;;;4.50;;
64903;SDS011;51401;48.882;12.598;2022-10-16T16:20:26;11.52;;;6.78;;
64903;SDS011;51401;48.882;12.598;2022-10-16T16:22:52;16.35;;;8.75;;
64903;SDS011;51401;48.882;12.598;2022-10-16T16:25:17;31.73;;;15.65;;
64903;SDS011;51401;48.882;12.598;2022-10-16T16:27:42;13.13;;;7.85;;
64903;SDS011;51401;48.882;12.598;2022-10-16T16:30:09;8.10;;;5.90;;
64903;SDS011;51401;48.882;12.598;2022-10-16T16:32:36;6.95;;;5.43;;